createdAt,value
2018-07-19T00:00:08.397Z,100081.42
2018-07-19T00:02:37.140Z,100083.21
2018-07-19T00:05:05.861Z,100081.97
2018-07-19T00:07:34.497Z,100082.84
2018-07-19T00:10:03.048Z,100076.73
2018-07-19T00:12:31.772Z,100081.67
2018-07-19T00:15:00.557Z,100071.64
2018-07-19T00:17:29.194Z,100080.56
2018-07-19T00:19:57.858Z,100083.38
2018-07-19T00:22:26.641Z,100083.05
2018-07-19T00:24:55.374Z,100084.94
2018-07-19T00:27:24.344Z,100092.98
2018-07-19T00:29:53.037Z,100093.53
2018-07-19T00:32:21.759Z,100093.35
2018-07-19T00:34:50.381Z,100100.22
2018-07-19T00:37:19.159Z,100095.11
2018-07-19T00:39:47.868Z,100089.21
2018-07-19T00:42:16.502Z,100091.99
2018-07-19T00:44:45.106Z,100091.20
2018-07-19T00:47:14.042Z,100095.74
2018-07-19T00:49:42.848Z,100096.28
2018-07-19T00:52:11.767Z,100086.09
2018-07-19T00:54:40.507Z,100085.70
2018-07-19T00:57:09.351Z,100087.42
2018-07-19T00:59:38.268Z,100088.36
2018-07-19T01:02:07.145Z,100087.52
2018-07-19T01:04:35.961Z,100087.63
2018-07-19T01:07:04.773Z,100089.27
2018-07-19T01:09:33.704Z,100085.88
2018-07-19T01:12:02.556Z,100086.08
2018-07-19T01:14:31.298Z,100088.55
2018-07-19T01:17:00.116Z,100088.72
2018-07-19T01:19:28.998Z,100083.21
2018-07-19T01:21:57.742Z,100077.22
2018-07-19T01:24:26.558Z,100083.08
2018-07-19T01:26:55.259Z,100082.28
2018-07-19T01:29:24.044Z,100080.53
2018-07-19T01:31:52.836Z,100080.95
2018-07-19T01:34:21.606Z,100084.46
2018-07-19T01:36:50.312Z,100080.42
2018-07-19T01:39:19.023Z,100086.19
2018-07-19T01:42:24.476Z,100080.53
2018-07-19T01:44:53.162Z,100081.07
2018-07-19T01:47:22.188Z,100087.80
2018-07-19T01:49:51.195Z,100081.75
2018-07-19T01:52:19.923Z,100088.40
2018-07-19T01:54:48.845Z,100090.77
2018-07-19T01:57:18.532Z,100092.64
2018-07-19T01:59:47.891Z,100089.19
2018-07-19T02:02:16.738Z,100087.47
2018-07-19T02:04:45.631Z,100086.34
2018-07-19T02:07:14.407Z,100096.09
2018-07-19T02:09:43.305Z,100093.17
2018-07-19T02:12:12.089Z,100093.28
2018-07-19T02:14:41.194Z,100094.61
2018-07-19T02:17:10.144Z,100095.55
2018-07-19T02:19:38.963Z,100093.08
2018-07-19T02:22:07.774Z,100094.55
2018-07-19T02:24:36.608Z,100087.96
2018-07-19T02:27:05.494Z,100088.63
2018-07-19T02:29:35.642Z,100087.84
2018-07-19T02:32:08.250Z,100089.67
2018-07-19T02:34:37.085Z,100089.76
2018-07-19T02:37:05.953Z,100080.52
2018-07-19T02:39:34.778Z,100087.20
2018-07-19T02:42:03.517Z,100090.88
2018-07-19T02:44:32.362Z,100083.84
2018-07-19T02:47:01.145Z,100089.20
2018-07-19T02:49:29.993Z,100083.15
2018-07-19T02:51:58.735Z,100082.77
2018-07-19T02:54:27.425Z,100084.23
2018-07-19T02:56:56.246Z,100085.36
2018-07-19T02:59:24.937Z,100086.82
2018-07-19T03:01:53.717Z,100079.83
2018-07-19T03:04:22.509Z,100082.14
2018-07-19T03:06:51.270Z,100079.54
2018-07-19T03:09:20.011Z,100085.78
2018-07-19T03:11:48.815Z,100079.27
2018-07-19T03:14:17.675Z,100082.46
2018-07-19T03:16:46.552Z,100076.32
2018-07-19T03:19:15.517Z,100081.72
2018-07-19T03:21:44.517Z,100082.69
2018-07-19T03:24:13.280Z,100083.67
2018-07-19T03:26:41.999Z,100082.88
2018-07-19T03:29:10.772Z,100080.75
2018-07-19T03:31:39.708Z,100079.42
2018-07-19T03:34:08.511Z,100076.02
2018-07-19T03:36:37.490Z,100075.67
2018-07-19T03:39:08.371Z,100082.84
2018-07-19T03:41:37.152Z,100080.63
2018-07-19T03:44:06.128Z,100083.37
2018-07-19T03:46:34.886Z,100081.16
2018-07-19T03:49:03.801Z,100078.11
2018-07-19T03:51:32.579Z,100079.83
2018-07-19T03:54:01.328Z,100082.04
2018-07-19T03:56:30.147Z,100082.04
2018-07-19T03:58:58.854Z,100077.58
2018-07-19T04:01:27.750Z,100081.56
2018-07-19T04:03:56.574Z,100082.57
2018-07-19T04:06:25.469Z,100084.34
2018-07-19T04:08:54.302Z,100080.02
2018-07-19T04:11:23.185Z,100077.88
2018-07-19T04:13:52.119Z,100082.67
2018-07-19T04:16:20.901Z,100087.92
2018-07-19T04:18:49.737Z,100087.00
2018-07-19T04:21:18.559Z,100086.55
2018-07-19T04:23:48.432Z,100083.95
2018-07-19T04:26:17.285Z,100090.09
2018-07-19T04:28:46.006Z,100088.33
2018-07-19T04:31:14.822Z,100089.20
2018-07-19T04:33:43.650Z,100083.55
2018-07-19T04:36:12.544Z,100081.34
2018-07-19T04:38:41.325Z,100082.14
2018-07-19T04:41:10.282Z,100081.34
2018-07-19T04:43:39.129Z,100087.05
2018-07-19T04:46:08.097Z,100087.39
2018-07-19T04:48:36.925Z,100085.36
2018-07-19T04:51:05.829Z,100084.33
2018-07-19T04:53:34.855Z,100085.88
2018-07-19T04:56:03.778Z,100086.28
2018-07-19T04:58:32.739Z,100082.24
2018-07-19T05:01:01.613Z,100087.02
2018-07-19T05:03:30.636Z,100090.92
2018-07-19T05:05:59.408Z,100091.75
2018-07-19T05:08:28.431Z,100094.27
2018-07-19T05:10:57.535Z,100086.66
2018-07-19T05:13:26.614Z,100096.56
2018-07-19T05:15:56.167Z,100097.17
2018-07-19T05:18:25.095Z,100098.55
2018-07-19T05:20:53.928Z,100091.53
2018-07-19T05:23:23.807Z,100090.22
2018-07-19T05:25:52.783Z,100091.64
2018-07-19T05:28:21.793Z,100096.88
2018-07-19T05:30:50.678Z,100099.97
2018-07-19T05:33:19.567Z,100104.01
2018-07-19T05:35:48.560Z,100101.55
2018-07-19T05:38:17.547Z,100104.28
2018-07-19T05:40:46.658Z,100100.09
2018-07-19T05:43:15.552Z,100099.29
2018-07-19T05:45:44.465Z,100097.88
2018-07-19T05:48:13.272Z,100096.47
2018-07-19T05:50:42.127Z,100099.28
2018-07-19T05:53:11.134Z,100098.06
2018-07-19T05:55:40.134Z,100089.12
2018-07-19T05:58:09.614Z,100095.03
2018-07-19T06:00:38.414Z,100087.53
2018-07-19T06:03:07.419Z,100093.52
2018-07-19T06:05:36.144Z,100096.94
2018-07-19T06:08:05.003Z,100094.44
2018-07-19T06:10:33.665Z,100093.96
2018-07-19T06:13:02.815Z,100090.63
2018-07-19T06:15:31.599Z,100083.23
2018-07-19T06:18:00.502Z,100096.52
2018-07-19T06:20:29.274Z,100104.41
2018-07-19T06:22:58.166Z,100100.80
2018-07-19T06:25:26.900Z,100100.91
2018-07-19T06:27:55.914Z,100096.33
2018-07-19T06:30:24.604Z,100101.93
2018-07-19T06:32:53.440Z,100105.69
2018-07-19T06:35:22.301Z,100094.63
2018-07-19T06:37:51.083Z,100098.50
2018-07-19T06:40:19.868Z,100104.28
2018-07-19T06:42:48.592Z,100104.92
2018-07-19T06:45:17.755Z,100104.55
2018-07-19T06:47:46.847Z,100103.48
2018-07-19T06:50:15.464Z,100101.70
2018-07-19T06:52:45.418Z,100101.05
2018-07-19T06:55:14.327Z,100099.48
2018-07-19T06:57:43.158Z,100106.08
2018-07-19T07:00:13.905Z,100102.16
2018-07-19T07:02:43.232Z,100105.70
2018-07-19T07:05:12.197Z,100104.72
2018-07-19T07:07:41.123Z,100107.68
2018-07-19T07:10:10.106Z,100104.30
2018-07-19T07:12:38.873Z,100108.18
2018-07-19T07:15:08.022Z,100108.98
2018-07-19T07:17:36.734Z,100125.41
2018-07-19T07:20:05.806Z,100104.26
2018-07-19T07:22:34.896Z,100110.05
2018-07-19T07:25:03.664Z,100113.03
2018-07-19T07:27:32.421Z,100113.18
2018-07-19T07:30:01.133Z,100120.53
2018-07-19T07:32:30.100Z,100113.04
2018-07-19T07:34:59.106Z,100118.37
2018-07-19T07:37:28.029Z,100119.31
2018-07-19T07:39:56.651Z,100115.14
2018-07-19T07:42:25.520Z,100114.89
2018-07-19T07:44:54.311Z,100119.92
2018-07-19T07:47:24.245Z,100120.75
2018-07-19T07:49:52.942Z,100126.11
2018-07-19T07:52:21.546Z,100126.55
2018-07-19T07:54:50.186Z,100128.20
2018-07-19T07:57:18.908Z,100126.59
2018-07-19T07:59:47.507Z,100125.95
2018-07-19T08:02:16.081Z,100128.64
2018-07-19T08:04:44.958Z,100128.69
2018-07-19T08:07:13.711Z,100126.41
2018-07-19T08:09:42.231Z,100124.06
2018-07-19T08:12:11.033Z,100125.70
2018-07-19T08:14:39.807Z,100131.67
2018-07-19T08:17:08.379Z,100140.05
2018-07-19T08:19:36.982Z,100130.25
2018-07-19T08:22:05.506Z,100127.19
2018-07-19T08:24:34.246Z,100128.17
2018-07-19T08:27:02.786Z,100129.24
2018-07-19T08:29:31.355Z,100133.05
2018-07-19T08:32:00.707Z,100130.22
2018-07-19T08:34:29.329Z,100129.63
2018-07-19T08:36:57.929Z,100126.06
2018-07-19T08:39:26.563Z,100127.43
2018-07-19T08:41:55.222Z,100121.09
2018-07-19T08:44:23.861Z,100122.16
2018-07-19T08:46:52.458Z,100124.63
2018-07-19T08:49:21.088Z,100123.23
2018-07-19T08:51:49.667Z,100121.69
2018-07-19T08:54:18.178Z,100118.17
2018-07-19T08:56:46.711Z,100117.19
2018-07-19T08:59:15.332Z,100115.19
2018-07-19T09:01:43.973Z,100116.84
2018-07-19T09:04:12.577Z,100111.87
2018-07-19T09:06:41.085Z,100112.80
2018-07-19T09:09:10.396Z,100122.84
2018-07-19T09:11:39.280Z,100112.41
2018-07-19T09:14:07.880Z,100105.13
2018-07-19T09:16:36.454Z,100104.90
2018-07-19T09:19:04.993Z,100104.31
2018-07-19T09:21:33.517Z,100104.24
2018-07-19T09:24:02.084Z,100105.83
2018-07-19T09:26:30.854Z,100112.77
2018-07-19T09:28:59.500Z,100108.95
2018-07-19T09:31:27.993Z,100104.61
2018-07-19T09:33:56.528Z,100100.16
2018-07-19T09:36:25.128Z,100103.86
2018-07-19T09:38:53.741Z,100094.78
2018-07-19T09:41:22.288Z,100096.81
2018-07-19T09:43:51.034Z,100093.62
2018-07-19T09:46:19.921Z,100095.75
2018-07-19T09:48:48.727Z,100097.22
2018-07-19T09:51:17.445Z,100090.19
2018-07-19T09:53:46.097Z,100088.29
2018-07-19T09:56:14.804Z,100088.77
2018-07-19T09:58:43.392Z,100093.02
2018-07-19T10:01:21.455Z,100089.56
2018-07-19T10:03:51.455Z,100081.53
2018-07-19T10:06:20.338Z,100085.83
2018-07-19T10:08:49.078Z,100084.10
2018-07-19T10:11:17.688Z,100089.09
2018-07-19T10:13:46.917Z,100011.49
2018-07-19T10:16:15.518Z,100022.22
2018-07-19T10:18:44.214Z,100085.27
2018-07-19T10:21:12.778Z,100084.59
2018-07-19T10:23:41.447Z,100084.39
2018-07-19T10:26:10.133Z,100083.92
2018-07-19T10:28:38.730Z,100075.73
2018-07-19T10:31:07.325Z,100078.45
2018-07-19T10:33:35.847Z,100081.20
2018-07-19T10:36:04.479Z,100072.33
2018-07-19T10:38:33.392Z,100084.08
2018-07-19T10:41:02.210Z,100074.17
2018-07-19T10:43:30.883Z,100072.17
2018-07-19T10:45:59.502Z,100070.63
2018-07-19T10:48:28.036Z,100070.39
2018-07-19T10:50:56.672Z,100074.56
2018-07-19T10:53:25.266Z,100063.27
2018-07-19T10:55:54.019Z,100063.49
2018-07-19T10:58:22.586Z,100060.20
2018-07-19T11:00:51.200Z,100060.91
2018-07-19T11:03:19.794Z,100059.80
2018-07-19T11:05:48.445Z,100057.44
2018-07-19T11:08:17.082Z,100060.20
2018-07-19T11:10:45.746Z,100052.34
2018-07-19T11:13:14.305Z,100047.36
2018-07-19T11:15:43.034Z,100051.58
2018-07-19T11:18:11.569Z,100044.91
2018-07-19T11:20:40.162Z,100052.22
2018-07-19T11:23:08.860Z,100053.69
2018-07-19T11:25:37.428Z,100045.37
2018-07-19T11:28:06.068Z,100052.42
2018-07-19T11:30:34.798Z,100045.02
2018-07-19T11:33:03.364Z,100040.25
2018-07-19T11:35:31.995Z,100034.44
2018-07-19T11:38:00.616Z,100029.47
2018-07-19T11:40:29.269Z,100033.84
2018-07-19T11:42:57.805Z,100031.67
2018-07-19T11:45:26.442Z,100029.17
2018-07-19T11:47:55.075Z,100019.20
2018-07-19T11:50:23.728Z,100015.95
2018-07-19T11:52:52.256Z,100019.70
2018-07-19T11:55:20.871Z,100018.39
2018-07-19T11:57:49.381Z,100024.28
2018-07-19T12:00:17.907Z,100017.33
2018-07-19T12:02:46.490Z,100018.92
2018-07-19T12:05:15.159Z,100010.35
2018-07-19T12:07:43.741Z,100013.65
2018-07-19T12:10:12.327Z,100010.70
2018-07-19T12:12:40.973Z,100005.80
2018-07-19T12:15:09.541Z,100005.48
2018-07-19T12:17:38.079Z,100001.68
2018-07-19T12:20:06.810Z,100006.87
2018-07-19T12:22:35.417Z,100015.59
2018-07-19T12:25:04.042Z,99994.27
2018-07-19T12:27:32.635Z,99996.63
2018-07-19T12:30:01.248Z,99995.47
2018-07-19T12:32:29.881Z,99997.83
2018-07-19T12:34:58.464Z,99995.47
2018-07-19T12:37:27.272Z,99988.94
2018-07-19T12:39:56.174Z,99991.50
2018-07-19T12:42:24.863Z,99990.50
2018-07-19T12:44:53.580Z,99985.94
2018-07-19T12:47:22.211Z,99990.69
2018-07-19T12:49:50.832Z,99993.44
2018-07-19T12:52:19.343Z,99985.94
2018-07-19T12:54:47.870Z,99986.09
2018-07-19T12:57:16.462Z,99978.27
2018-07-19T12:59:44.976Z,99986.45
2018-07-19T13:02:13.703Z,99972.16
2018-07-19T13:04:42.477Z,99986.67
2018-07-19T13:07:11.124Z,99988.06
2018-07-19T13:09:39.948Z,99982.16
2018-07-19T13:12:08.595Z,99986.95
2018-07-19T13:14:37.235Z,99982.21
2018-07-19T13:17:05.901Z,99985.36
2018-07-19T13:19:34.638Z,99983.25
2018-07-19T13:22:03.340Z,99978.48
2018-07-19T13:24:31.911Z,99980.33
2018-07-19T13:27:00.521Z,99979.39
2018-07-19T13:29:29.116Z,99981.70
2018-07-19T13:31:58.000Z,99976.30
2018-07-19T13:34:26.629Z,99975.71
2018-07-19T13:36:55.288Z,99975.19
2018-07-19T13:39:23.927Z,99972.45
2018-07-19T13:41:52.556Z,99970.78
2018-07-19T13:44:21.115Z,99975.74
2018-07-19T13:46:49.724Z,99969.61
2018-07-19T13:49:18.347Z,99977.56
2018-07-19T13:51:46.863Z,99970.15
2018-07-19T13:55:18.020Z,99966.79
2018-07-19T13:57:46.684Z,99967.19
2018-07-19T14:00:15.305Z,99961.91
2018-07-19T14:02:43.866Z,99961.83
2018-07-19T14:05:12.521Z,99955.72
2018-07-19T14:07:41.076Z,99950.84
2018-07-19T14:10:09.611Z,99948.02
2018-07-19T14:12:38.155Z,99950.16
2018-07-19T14:15:07.426Z,99935.23
2018-07-19T14:17:36.181Z,99933.42
2018-07-19T14:20:05.111Z,99938.04
2018-07-19T14:22:33.894Z,99932.63
2018-07-19T14:25:02.454Z,99951.09
2018-07-19T14:27:30.979Z,99938.55
2018-07-19T14:30:00.074Z,99936.84
2018-07-19T14:32:28.663Z,99933.36
2018-07-19T14:34:57.272Z,99929.96
2018-07-19T14:37:26.003Z,99931.16
2018-07-19T14:39:54.604Z,99934.91
2018-07-19T14:42:23.247Z,99928.85
2018-07-19T14:44:51.821Z,99932.28
2018-07-19T14:47:20.360Z,99928.41
2018-07-19T14:49:49.352Z,99929.97
2018-07-19T14:52:18.025Z,99918.78
2018-07-19T14:54:46.670Z,99918.13
2018-07-19T14:57:15.309Z,99913.97
2018-07-19T14:59:44.075Z,99915.20
2018-07-19T15:02:12.835Z,99914.05
2018-07-19T15:04:41.430Z,99908.28
2018-07-19T15:07:10.044Z,99914.86
2018-07-19T15:09:38.573Z,99911.27
2018-07-19T15:12:07.729Z,99913.72
2018-07-19T15:14:36.305Z,99907.12
2018-07-19T15:17:04.861Z,99907.58
2018-07-19T15:19:33.486Z,99903.66
2018-07-19T15:22:01.962Z,99906.86
2018-07-19T15:24:30.600Z,99910.12
2018-07-19T15:26:59.098Z,99909.11
2018-07-19T15:29:27.825Z,99906.39
2018-07-19T15:31:56.361Z,99904.00
2018-07-19T15:34:24.928Z,99900.48
2018-07-19T15:36:53.545Z,99901.31
2018-07-19T15:39:22.138Z,99892.61
2018-07-19T15:41:50.709Z,99892.88
2018-07-19T15:44:19.295Z,99890.08
2018-07-19T15:46:47.987Z,99885.44
2018-07-19T15:49:16.732Z,99890.08
2018-07-19T15:51:45.489Z,99882.03
2018-07-19T15:54:14.172Z,99885.31
2018-07-19T15:56:42.791Z,99881.29
2018-07-19T15:59:11.427Z,99883.03
2018-07-19T16:01:40.041Z,99885.14
2018-07-19T16:04:08.701Z,99878.20
2018-07-19T16:06:37.239Z,99869.43
2018-07-19T16:09:08.686Z,99875.94
2018-07-19T16:11:37.341Z,99868.19
2018-07-19T16:14:06.360Z,99864.77
2018-07-19T16:16:35.197Z,99862.50
2018-07-19T16:19:03.785Z,99858.34
2018-07-19T16:21:32.707Z,99854.38
2018-07-19T16:24:01.310Z,99853.84
2018-07-19T16:26:29.857Z,99853.19
2018-07-19T16:28:58.593Z,99853.58
2018-07-19T16:31:27.178Z,99858.41
2018-07-19T16:33:55.903Z,99849.47
2018-07-19T16:36:24.484Z,99838.86
2018-07-19T16:38:53.041Z,99837.86
2018-07-19T16:41:21.653Z,99835.45
2018-07-19T16:43:50.212Z,99840.52
2018-07-19T16:46:18.762Z,99835.31
2018-07-19T16:48:47.315Z,99830.81
2018-07-19T16:51:16.079Z,99835.45
2018-07-19T16:53:45.658Z,99829.90
2018-07-19T16:56:14.249Z,99828.97
2018-07-19T16:58:43.565Z,99825.69
2018-07-19T17:01:12.095Z,99831.73
2018-07-19T17:03:40.607Z,99829.69
2018-07-19T17:06:09.868Z,99829.42
2018-07-19T17:08:38.419Z,99834.37
2018-07-19T17:11:07.025Z,99828.78
2018-07-19T17:13:35.797Z,99829.39
2018-07-19T17:16:04.555Z,99830.13
2018-07-19T17:18:33.092Z,99827.44
2018-07-19T17:21:01.855Z,99826.27
2018-07-19T17:23:30.597Z,99821.70
2018-07-19T17:25:59.183Z,99818.91
2018-07-19T17:28:27.755Z,99819.70
2018-07-19T17:30:56.550Z,99818.97
2018-07-19T17:33:25.329Z,99817.91
2018-07-19T17:35:54.074Z,99812.78
2018-07-19T17:38:22.753Z,99809.58
2018-07-19T17:40:51.411Z,99813.14
2018-07-19T17:43:20.196Z,99815.69
2018-07-19T17:45:48.977Z,99812.02
2018-07-19T17:48:17.620Z,99810.67
2018-07-19T17:50:46.193Z,99803.05
2018-07-19T17:53:14.790Z,99808.45
2018-07-19T17:55:43.433Z,99813.21
2018-07-19T17:58:12.110Z,99808.33
2018-07-19T18:00:40.758Z,99806.46
2018-07-19T18:03:09.310Z,99806.11
2018-07-19T18:05:37.869Z,99804.41
2018-07-19T18:08:07.365Z,99805.52
2018-07-19T18:10:36.009Z,99813.20
2018-07-19T18:13:04.584Z,99807.34
2018-07-19T18:15:33.892Z,99810.06
2018-07-19T18:18:02.510Z,99808.00
2018-07-19T18:20:31.009Z,99806.94
2018-07-19T18:23:00.490Z,99807.70
2018-07-19T18:25:29.209Z,99809.66
2018-07-19T18:27:57.882Z,99807.34
2018-07-19T18:30:26.830Z,99805.61
2018-07-19T18:32:55.494Z,99808.47
2018-07-19T18:35:24.203Z,99799.78
2018-07-19T18:37:53.064Z,99798.92
2018-07-19T18:40:21.635Z,99796.78
2018-07-19T18:42:50.300Z,99800.24
2018-07-19T18:45:18.880Z,99796.09
2018-07-19T18:47:47.461Z,99794.78
2018-07-19T18:50:16.799Z,99797.69
2018-07-19T18:52:45.710Z,99795.16
2018-07-19T18:55:14.407Z,99792.72
2018-07-19T18:57:43.040Z,99794.02
2018-07-19T19:00:11.701Z,99795.66
2018-07-19T19:02:40.320Z,99800.00
2018-07-19T19:05:08.882Z,99797.85
2018-07-19T19:07:37.459Z,99802.83
2018-07-19T19:10:06.112Z,99805.27
2018-07-19T19:12:34.957Z,99804.81
2018-07-19T19:15:03.688Z,99807.80
2018-07-19T19:17:32.330Z,99808.20
2018-07-19T19:20:00.896Z,99810.05
2018-07-19T19:22:29.492Z,99811.55
2018-07-19T19:24:58.024Z,99805.43
2018-07-19T19:27:26.594Z,99808.25
2018-07-19T19:29:55.281Z,99814.48
2018-07-19T19:32:23.827Z,99810.56
2018-07-19T19:34:52.437Z,99816.66
2018-07-19T19:37:21.001Z,99817.13
2018-07-19T19:39:49.684Z,99818.33
2018-07-19T19:42:18.248Z,99822.23
2018-07-19T19:44:46.872Z,99820.36
2018-07-19T19:47:15.408Z,99826.95
2018-07-19T19:49:43.965Z,99825.03
2018-07-19T19:52:12.465Z,99824.38
2018-07-19T19:54:41.074Z,99824.71
2018-07-19T19:57:09.556Z,99824.05
2018-07-19T19:59:38.181Z,99828.27
2018-07-19T20:02:06.838Z,99826.77
2018-07-19T20:04:35.569Z,99822.95
2018-07-19T20:07:04.087Z,99826.27
2018-07-19T20:09:32.722Z,99822.05
2018-07-19T20:12:01.399Z,99832.09
2018-07-19T20:14:29.963Z,99824.34
2018-07-19T20:16:58.960Z,99824.41
2018-07-19T20:19:27.426Z,99825.56
2018-07-19T20:21:56.029Z,99825.70
2018-07-19T20:24:24.794Z,99824.14
2018-07-19T20:26:53.291Z,99822.95
2018-07-19T20:29:21.762Z,99817.39
2018-07-19T20:31:50.290Z,99816.96
2018-07-19T20:34:20.564Z,99816.63
2018-07-19T20:36:47.549Z,99820.69
2018-07-19T20:39:16.219Z,99822.34
2018-07-19T20:41:46.244Z,99821.91
2018-07-19T20:44:16.301Z,99821.72
2018-07-19T20:46:45.422Z,99823.50
2018-07-19T20:49:13.936Z,99827.42
2018-07-19T20:51:42.500Z,99828.10
2018-07-19T20:54:11.149Z,99827.91
2018-07-19T20:56:40.684Z,99825.08
2018-07-19T20:59:09.342Z,99832.45
2018-07-19T21:01:37.982Z,99828.36
2018-07-19T21:04:07.734Z,99822.56
2018-07-19T21:06:36.288Z,99821.53
2018-07-19T21:09:07.969Z,99830.33
2018-07-19T21:11:36.478Z,99827.86
2018-07-19T21:14:05.055Z,99835.81
2018-07-19T21:16:33.546Z,99833.34
2018-07-19T21:19:02.504Z,99834.48
2018-07-19T21:21:31.124Z,99835.66
2018-07-19T21:23:59.769Z,99836.80
2018-07-19T21:26:28.377Z,99831.24
2018-07-19T21:28:56.877Z,99835.92
2018-07-19T21:31:25.459Z,99836.22
2018-07-19T21:33:54.027Z,99829.45
2018-07-19T21:36:22.601Z,99834.05
2018-07-19T21:38:51.265Z,99836.05
2018-07-19T21:41:19.872Z,99842.07
2018-07-19T21:43:48.491Z,99844.08
2018-07-19T21:46:17.062Z,99840.73
2018-07-19T21:48:45.682Z,99839.68
2018-07-19T21:51:14.189Z,99835.20
2018-07-19T21:53:42.824Z,99839.88
2018-07-19T21:56:11.512Z,99841.87
2018-07-19T21:58:40.051Z,99849.42
2018-07-19T22:01:11.041Z,99845.70
2018-07-19T22:03:39.899Z,99843.98
2018-07-19T22:06:09.060Z,99842.27
2018-07-19T22:08:37.680Z,99849.91
2018-07-19T22:11:06.261Z,99852.66
2018-07-19T22:13:34.803Z,99843.94
2018-07-19T22:16:03.341Z,99846.80
2018-07-19T22:18:31.866Z,99849.76
2018-07-19T22:21:00.473Z,99844.69
2018-07-19T22:23:29.082Z,99845.73
2018-07-19T22:25:57.759Z,99849.55
2018-07-19T22:28:26.284Z,99855.17
2018-07-19T22:30:54.788Z,99854.49
2018-07-19T22:33:23.222Z,99853.81
2018-07-19T22:35:52.407Z,99851.42
2018-07-19T22:38:20.888Z,99848.83
2018-07-19T22:40:49.463Z,99858.94
2018-07-19T22:43:18.004Z,99860.24
2018-07-19T22:45:46.483Z,99853.91
2018-07-19T22:48:15.097Z,99857.34
2018-07-19T22:50:43.600Z,99857.23
2018-07-19T22:53:12.186Z,99856.97
2018-07-19T22:55:40.697Z,99858.03
2018-07-19T22:58:09.249Z,99853.91
2018-07-19T23:00:37.739Z,99849.98
2018-07-19T23:03:06.244Z,99855.78
2018-07-19T23:05:34.808Z,99845.77
2018-07-19T23:08:03.333Z,99851.20
2018-07-19T23:10:31.824Z,99848.69
2018-07-19T23:13:00.375Z,99846.28
2018-07-19T23:15:28.844Z,99847.42
2018-07-19T23:17:57.335Z,99851.69
2018-07-19T23:20:25.835Z,99842.69
2018-07-19T23:22:56.440Z,99844.84
2018-07-19T23:25:25.068Z,99840.52
2018-07-19T23:27:54.076Z,99842.00
2018-07-19T23:30:24.939Z,99845.30
2018-07-19T23:32:53.503Z,99840.22
2018-07-19T23:35:23.345Z,99843.17
2018-07-19T23:37:53.980Z,99838.91
2018-07-19T23:40:26.233Z,99838.21
2018-07-19T23:43:30.052Z,99838.84
2018-07-19T23:46:02.366Z,99840.92
2018-07-19T23:48:30.929Z,99830.51
2018-07-19T23:50:59.431Z,99833.42
2018-07-19T23:53:27.960Z,99832.66
2018-07-19T23:55:56.466Z,99828.80
2018-07-19T23:58:24.963Z,99825.86
